Time;durP1;ratioP1;P1;durP2;ratioP2;P2;SDS_P1;SDS_P2;PMS_P1;PMS_P2;Temp;Humidity;BMP_temperature;BMP_pressure;BME280_temperature;BME280_humidity;BME280_pressure;Samples;Min_cycle;Max_cycle;Signal;HPM_P1;HPM_P2
2021/06/06 00:02:04;;;;;;;1.70;1.60;;;24.70;43.20;;;28.44;29.37;101673.88;5136024;27;20065;-54
2021/06/06 00:04:29;;;;;;;1.50;1.40;;;24.70;43.20;;;28.45;29.27;101679.13;5154429;27;20499;-54
2021/06/06 00:06:55;;;;;;;1.50;1.40;;;24.70;43.20;;;28.44;28.99;101685.47;5154443;27;20061;-52
2021/06/06 00:09:21;;;;;;;1.60;1.50;;;24.70;43.20;;;28.45;29.35;101683.63;5154626;27;20038;-54
2021/06/06 00:11:54;;;;;;;1.60;1.50;;;24.70;43.30;;;28.41;29.28;101679.50;5154334;27;20034;-54
2021/06/06 00:14:33;;;;;;;1.60;1.50;;;24.70;43.30;;;28.40;29.34;101677.78;5136137;27;20078;-52
2021/06/06 00:17:06;;;;;;;1.60;1.50;;;24.70;43.30;;;28.40;29.29;101681.34;5154589;27;20484;-51
2021/06/06 00:19:32;;;;;;;1.45;1.35;;;24.70;43.30;;;28.42;29.12;101683.91;5154224;27;20047;-54
2021/06/06 00:21:59;;;;;;;1.50;1.40;;;24.70;43.30;;;28.37;29.24;101684.28;5154787;27;20102;-52
2021/06/06 00:24:31;;;;;;;1.70;1.60;;;24.70;43.30;;;28.37;29.43;101684.28;5153891;27;20043;-55
2021/06/06 00:26:57;;;;;;;1.60;1.50;;;24.70;43.40;;;28.39;29.13;101693.06;5154573;27;20042;-52
2021/06/06 00:29:24;;;;;;;1.58;1.48;;;24.70;43.40;;;28.37;29.33;101689.66;5154047;27;20072;-52
2021/06/06 00:31:50;;;;;;;1.55;1.45;;;24.70;43.40;;;28.38;29.19;101691.34;5154309;27;20551;-53
2021/06/06 00:34:16;;;;;;;1.80;1.70;;;24.70;43.50;;;28.32;29.01;101683.78;5135554;27;20066;-54
2021/06/06 00:36:42;;;;;;;1.70;1.60;;;24.70;43.50;;;28.37;29.19;101691.50;5135347;27;20051;-49
2021/06/06 00:39:11;;;;;;;1.70;1.60;;;24.70;43.40;;;28.33;29.43;101682.78;5153987;27;20047;-51
2021/06/06 00:41:43;;;;;;;1.45;1.35;;;24.60;43.40;;;28.32;29.23;101691.88;5135637;27;20039;-52
2021/06/06 00:44:10;;;;;;;1.52;1.42;;;24.60;43.40;;;28.32;29.13;101686.50;5135992;27;20042;-53
2021/06/06 00:46:37;;;;;;;1.70;1.60;;;24.60;43.40;;;28.32;29.30;101689.19;5154207;27;20859;-50
2021/06/06 00:49:06;;;;;;;1.85;1.75;;;24.60;43.40;;;28.33;29.38;101698.94;5117058;27;20052;-53
2021/06/06 00:51:47;;;;;;;1.52;1.42;;;24.60;43.40;;;28.32;29.20;101696.38;5134182;27;20047;-55
2021/06/06 00:54:25;;;;;;;1.80;1.70;;;24.60;43.50;;;28.31;29.35;101702.75;5153889;27;20552;-52
2021/06/06 00:57:00;;;;;;;1.65;1.55;;;24.60;43.50;;;28.27;29.32;101699.44;5083042;27;20420;-51
2021/06/06 00:59:29;;;;;;;1.50;1.40;;;24.60;43.50;;;28.31;29.17;101706.28;5118971;27;20039;-54
2021/06/06 01:01:55;;;;;;;1.55;1.45;;;24.50;43.50;;;28.28;29.46;101704.72;5117575;27;20049;-54
2021/06/06 01:04:22;;;;;;;1.65;1.55;;;24.60;43.50;;;28.26;29.49;101705.78;5153543;27;20491;-51
2021/06/06 01:06:52;;;;;;;1.50;1.40;;;24.50;43.50;;;28.26;29.33;101709.34;5116627;27;20050;-51
2021/06/06 01:09:23;;;;;;;1.60;1.50;;;24.50;43.50;;;28.26;29.47;101705.78;5133713;27;20138;-54
2021/06/06 01:12:11;;;;;;;1.60;1.50;;;24.50;43.60;;;28.23;29.50;101706.03;5118157;27;20039;-55
2021/06/06 01:15:01;;;;;;;1.70;1.60;;;24.50;44.20;;;28.24;29.44;101705.06;5135050;27;20043;-54
2021/06/06 01:18:29;;;;;;;1.92;1.83;;;24.50;43.60;;;28.24;29.49;101703.22;5117711;27;20103;-51
2021/06/06 01:21:05;;;;;;;1.70;1.60;;;24.50;43.60;;;28.23;29.25;101697.97;5135414;27;20383;-55
2021/06/06 01:24:15;;;;;;;1.40;1.30;;;24.50;43.60;;;28.21;29.31;101692.72;5116271;27;20073;-50
2021/06/06 01:27:21;;;;;;;1.70;1.60;;;24.50;43.60;;;28.20;29.33;101699.09;5134751;27;20042;-53
2021/06/06 01:30:19;;;;;;;1.50;1.40;;;24.50;43.60;;;28.20;29.20;101690.13;5129288;27;20510;-52
2021/06/06 01:33:09;;;;;;;1.50;1.40;;;24.50;43.70;;;28.18;29.63;101694.78;5135058;27;20094;-54
2021/06/06 01:35:52;;;;;;;1.65;1.55;;;24.50;43.70;;;28.18;29.37;101692.09;5116602;27;20043;-53
2021/06/06 01:38:26;;;;;;;1.50;1.40;;;24.50;43.70;;;28.16;29.62;101686.84;5120462;27;20472;-53
2021/06/06 01:40:58;;;;;;;1.50;1.40;;;24.50;43.70;;;28.14;29.61;101686.13;5103412;27;20068;-54
2021/06/06 01:43:33;;;;;;;1.65;1.55;;;24.50;43.70;;;28.17;29.36;101690.41;5138677;27;20509;-56
2021/06/06 01:46:05;;;;;;;1.35;1.33;;;24.50;43.80;;;28.13;29.48;101684.41;5120720;27;20050;-51
2021/06/06 01:48:34;;;;;;;1.50;1.40;;;24.40;43.70;;;28.14;29.67;101687.97;5137905;27;20035;-53
2021/06/06 01:51:07;;;;;;;1.50;1.40;;;24.40;43.70;;;28.14;29.40;101687.97;5120916;27;20043;-50
2021/06/06 01:53:36;;;;;;;1.73;1.63;;;24.40;43.70;;;28.15;29.65;101689.66;5138312;27;20047;-50
2021/06/06 01:56:06;;;;;;;1.77;1.67;;;24.40;43.70;;;28.13;29.31;101686.25;5121354;27;20133;-53
2021/06/06 01:58:39;;;;;;;1.63;1.52;;;24.40;43.80;;;28.13;29.56;101692.47;5122408;27;20083;-48
2021/06/06 02:01:21;;;;;;;1.60;1.50;;;24.40;43.80;;;28.12;29.85;101692.59;5121203;27;20086;-50
2021/06/06 02:03:53;;;;;;;1.60;1.50;;;24.40;43.80;;;28.14;29.72;101702.25;5138141;27;20043;-52
2021/06/06 02:06:34;;;;;;;1.30;1.30;;;24.40;43.80;;;28.11;29.47;101691.75;5138506;27;20038;-49
2021/06/06 02:09:06;;;;;;;1.50;1.40;;;24.40;43.90;;;28.12;29.67;101695.28;5120792;27;20082;-53
2021/06/06 02:11:42;;;;;;;1.60;1.50;;;24.40;43.80;;;28.09;29.56;101691.00;5137454;27;20046;-51
2021/06/06 02:14:20;;;;;;;1.50;1.40;;;24.40;43.90;;;28.07;29.47;101679.53;5137594;27;20492;-50
2021/06/06 02:16:55;;;;;;;1.33;1.30;;;24.40;43.90;;;28.05;29.68;101684.16;5120967;27;20070;-52
2021/06/06 02:19:35;;;;;;;1.58;1.48;;;24.40;43.90;;;28.07;29.58;101684.91;5138198;27;20050;-54
2021/06/06 02:22:14;;;;;;;1.50;1.40;;;24.40;43.90;;;28.08;29.68;101692.84;5137716;27;20092;-51
2021/06/06 02:24:42;;;;;;;1.85;1.75;;;24.40;44.00;;;28.07;29.81;101696.50;5120489;27;20070;-53
2021/06/06 02:27:29;;;;;;;1.58;1.48;;;24.30;43.90;;;28.02;29.45;101693.34;5156046;27;20043;-54
2021/06/06 02:30:18;;;;;;;1.60;1.50;;;24.30;43.90;;;28.03;29.83;101686.13;5120489;27;20093;-51
2021/06/06 02:33:23;;;;;;;1.52;1.42;;;24.40;44.00;;;28.01;29.64;101697.00;5120938;27;20407;-53
2021/06/06 02:35:58;;;;;;;1.50;1.40;;;24.40;44.00;;;28.04;29.76;101696.75;5137700;27;20460;-55
2021/06/06 02:38:51;;;;;;;1.50;1.40;;;24.30;44.00;;;28.00;29.95;101689.91;5120229;27;20043;-53
2021/06/06 02:41:26;;;;;;;1.40;1.30;;;24.30;44.00;;;28.02;29.43;101692.50;5155787;27;20335;-53
2021/06/06 02:44:08;;;;;;;1.52;1.42;;;24.30;44.00;;;28.00;29.76;101687.22;5137264;27;20404;-55
2021/06/06 02:46:41;;;;;;;1.40;1.30;;;24.30;44.00;;;28.00;29.73;101686.34;5120378;27;20046;-55
2021/06/06 02:49:15;;;;;;;1.58;1.48;;;24.30;44.00;;;27.99;29.64;101692.72;5137669;27;20479;-54
2021/06/06 02:51:52;;;;;;;1.17;1.15;;;24.30;44.10;;;27.99;29.66;101690.88;5120687;27;20384;-53
2021/06/06 02:54:47;;;;;;;1.70;1.60;;;24.30;44.10;;;27.96;29.58;101687.59;5120403;27;20123;-55
2021/06/06 02:57:22;;;;;;;1.50;1.40;;;24.20;44.10;;;27.99;29.81;101695.41;5119453;27;20054;-53
2021/06/06 03:00:05;;;;;;;1.58;1.48;;;24.30;44.20;;;27.95;29.94;101689.44;5121249;27;20066;-51
2021/06/06 03:02:47;;;;;;;1.25;1.25;;;24.30;44.20;;;27.94;29.58;101682.34;5137480;27;20051;-52
2021/06/06 03:05:19;;;;;;;1.60;1.50;;;24.20;44.10;;;27.98;29.79;101691.00;5118378;27;20100;-51
2021/06/06 03:07:49;;;;;;;1.55;1.48;;;24.20;44.10;;;27.94;29.64;101690.41;5135230;27;20053;-50
2021/06/06 03:10:21;;;;;;;1.40;1.30;;;24.20;44.10;;;27.95;30.00;101685.88;5118539;27;20039;-52
2021/06/06 03:12:51;;;;;;;1.77;1.67;;;24.20;44.20;;;27.96;29.91;101687.59;5135424;27;20411;-53
2021/06/06 03:15:20;;;;;;;1.50;1.40;;;24.20;44.20;;;27.94;29.71;101687.72;5155432;27;20572;-51
2021/06/06 03:17:53;;;;;;;1.50;1.40;;;24.20;44.20;;;27.93;29.74;101683.28;5137503;27;20055;-49
2021/06/06 03:20:27;;;;;;;1.73;1.63;;;24.20;44.20;;;27.89;29.90;101681.81;5135009;27;20055;-50
2021/06/06 03:22:59;;;;;;;1.58;1.48;;;24.20;44.20;;;27.93;29.74;101685.97;5136320;27;20391;-51
2021/06/06 03:25:37;;;;;;;;;;;24.20;44.20;;;27.98;29.53;101678.41;5136812;27;20051;-49
2021/06/06 03:28:05;;;;;;;1.65;1.55;;;24.20;44.20;;;27.92;29.57;101684.25;5136471;27;19915;-49
2021/06/06 03:30:45;;;;;;;1.80;1.70;;;24.20;44.20;;;27.91;29.88;101690.59;5135828;27;20050;-48
2021/06/06 03:33:56;;;;;;;1.58;1.48;;;24.20;44.30;;;27.91;29.85;101695.97;5136895;27;20043;-52
2021/06/06 03:36:38;;;;;;;1.70;1.60;;;24.20;44.30;;;27.86;30.02;101688.25;5067163;27;20061;-54
2021/06/06 03:39:16;;;;;;;1.48;1.38;;;24.20;44.30;;;27.89;29.86;101700.63;5120051;27;20047;-52
2021/06/06 03:41:45;;;;;;;1.52;1.42;;;24.10;44.30;;;27.87;30.05;101700.75;5136665;27;20042;-52
2021/06/06 03:44:12;;;;;;;1.50;1.40;;;24.20;44.30;;;27.85;29.79;101704.50;5134823;27;20130;-53
2021/06/06 03:46:38;;;;;;;1.48;1.38;;;24.10;44.30;;;27.86;29.77;101709.78;5134510;27;20039;-51
2021/06/06 03:49:07;;;;;;;1.63;1.52;;;24.10;44.30;;;27.85;29.84;101708.06;5154800;27;20042;-51
2021/06/06 03:51:36;;;;;;;1.63;1.52;;;24.10;44.30;;;27.86;29.99;101708.91;5118780;27;20047;-51
2021/06/06 03:54:06;;;;;;;1.38;1.30;;;24.10;44.40;;;27.84;29.91;101709.03;5136024;27;20411;-53
2021/06/06 03:56:33;;;;;;;;;;;24.10;44.40;;;27.94;29.85;101711.91;5155339;27;20077;-50
2021/06/06 03:59:00;;;;;;;1.40;1.35;;;24.10;44.40;;;27.88;29.73;101710.53;5134461;27;20362;-52
2021/06/06 04:01:25;;;;;;;1.50;1.40;;;24.10;44.40;;;27.86;29.90;101717.81;5136568;27;20046;-50
2021/06/06 04:03:52;;;;;;;1.73;1.63;;;24.10;44.40;;;27.84;30.11;101721.63;5135656;27;20137;-49
2021/06/06 04:06:18;;;;;;;1.50;1.40;;;24.10;44.50;;;27.80;29.94;101712.97;5136016;27;20058;-48
2021/06/06 04:08:47;;;;;;;1.63;1.52;;;24.10;44.40;;;27.79;29.87;101715.75;5134923;27;20043;-48
2021/06/06 04:11:17;;;;;;;1.60;1.50;;;24.10;44.50;;;27.77;29.93;101723.94;5135635;27;20043;-52
2021/06/06 04:13:50;;;;;;;1.48;1.38;;;24.10;44.50;;;27.79;29.98;101723.81;5136033;27;20137;-49
2021/06/06 04:16:18;;;;;;;1.63;1.52;;;24.10;44.50;;;27.81;30.05;101728.09;5135725;27;20547;-49
2021/06/06 04:18:44;;;;;;;1.40;1.30;;;24.10;44.50;;;27.77;30.05;101723.09;5135662;27;20071;-49
2021/06/06 04:21:21;;;;;;;1.42;1.35;;;24.10;44.50;;;27.78;30.09;101730.16;5135966;27;20391;-48
2021/06/06 04:23:48;;;;;;;1.73;1.63;;;24.00;44.50;;;27.79;30.11;101730.03;5136209;27;20407;-51
2021/06/06 04:26:15;;;;;;;1.20;1.20;;;24.00;44.50;;;27.75;29.97;101720.53;5154141;27;20050;-50
2021/06/06 04:28:44;;;;;;;1.42;1.33;;;24.10;44.50;;;27.79;29.87;101732.72;5154187;27;20396;-50
2021/06/06 04:31:17;;;;;;;1.63;1.52;;;24.10;44.50;;;27.76;30.24;101726.75;5134645;27;20047;-50
2021/06/06 04:33:45;;;;;;;1.30;1.30;;;24.10;44.50;;;27.77;30.18;101728.47;5135522;27;20042;-52
2021/06/06 04:36:12;;;;;;;1.67;1.58;;;24.10;44.60;;;27.77;30.06;101723.09;5135506;27;20503;-50
2021/06/06 04:38:38;;;;;;;1.50;1.40;;;24.00;45.10;;;27.75;30.28;101727.72;5117386;27;20111;-50
2021/06/06 04:41:10;;;;;;;1.40;1.33;;;24.10;44.60;;;27.76;29.95;101730.28;5154546;27;20091;-49
2021/06/06 04:43:38;;;;;;;1.40;1.30;;;24.00;44.60;;;27.75;30.18;101733.97;5135468;27;20047;-48
2021/06/06 04:46:05;;;;;;;1.60;1.50;;;24.00;44.60;;;27.76;30.04;101734.81;5153876;27;20065;-50
2021/06/06 04:48:45;;;;;;;1.50;1.40;;;24.00;44.60;;;27.73;30.02;101727.81;5135222;27;20038;-48
2021/06/06 04:51:23;;;;;;;1.30;1.27;;;24.00;44.60;;;27.70;30.03;101726.25;5135067;27;20080;-46
2021/06/06 04:53:59;;;;;;;1.50;1.40;;;24.00;44.60;;;27.76;30.07;101732.97;5135420;27;20430;-49
2021/06/06 04:56:28;;;;;;;1.60;1.50;;;24.00;44.60;;;27.73;30.05;101731.38;5134786;27;20047;-47
2021/06/06 04:58:57;;;;;;;;;;;24.00;45.20;;;27.84;30.01;101738.59;5136253;27;20479;-50
2021/06/06 05:01:25;;;;;;;1.52;1.42;;;24.00;44.70;;;27.80;29.91;101736.25;5135458;27;19923;-50
2021/06/06 05:03:52;;;;;;;1.40;1.30;;;24.00;44.60;;;27.76;30.29;101735.66;5117121;27;20515;-52
2021/06/06 05:06:19;;;;;;;1.30;1.20;;;24.00;44.70;;;27.72;30.29;101731.50;5135136;27;20063;-52
2021/06/06 05:08:47;;;;;;;1.50;1.40;;;24.00;44.70;;;27.73;30.18;101734.06;5135147;27;20053;-53
2021/06/06 05:11:13;;;;;;;1.63;1.52;;;24.00;44.70;;;27.71;30.15;101727.94;5138054;27;20050;-52
2021/06/06 05:13:39;;;;;;;1.50;1.40;;;24.00;44.70;;;27.70;30.18;101731.63;5138567;27;20403;-52
2021/06/06 05:16:05;;;;;;;1.42;1.33;;;23.90;44.70;;;27.72;30.31;101732.34;5157265;27;20133;-50
2021/06/06 05:18:33;;;;;;;1.55;1.45;;;24.00;44.70;;;27.70;30.27;101731.63;5138430;27;20399;-53
2021/06/06 05:21:04;;;;;;;1.40;1.30;;;24.00;44.70;;;27.72;30.36;101736.88;5138482;27;20050;-50
2021/06/06 05:23:32;;;;;;;1.67;1.58;;;24.00;44.70;;;27.71;30.27;101735.16;5157028;27;20047;-55
2021/06/06 05:26:06;;;;;;;1.60;1.50;;;24.00;44.70;;;27.72;30.03;101734.19;5138563;27;20053;-52
2021/06/06 05:28:36;;;;;;;1.70;1.60;;;24.00;44.70;;;27.68;30.34;101730.88;5138207;27;20091;-51
2021/06/06 05:31:04;;;;;;;1.60;1.50;;;24.00;44.80;;;27.70;30.28;101739.69;5138454;27;20135;-49
2021/06/06 05:33:30;;;;;;;1.63;1.52;;;24.00;44.80;;;27.70;30.30;101736.16;5157159;27;20082;-53
2021/06/06 05:35:56;;;;;;;1.50;1.40;;;24.00;44.80;;;27.71;30.11;101735.16;5156850;27;20078;-55
2021/06/06 05:38:27;;;;;;;1.80;1.70;;;24.00;44.80;;;27.69;30.03;101739.78;5156641;27;20054;-52
2021/06/06 05:40:56;;;;;;;1.70;1.60;;;23.90;44.80;;;27.68;30.22;101740.75;5156929;27;20137;-50
2021/06/06 05:43:23;;;;;;;1.75;1.65;;;24.00;44.80;;;27.69;30.33;101737.97;5156806;27;20129;-55
2021/06/06 05:45:51;;;;;;;1.40;1.30;;;23.90;44.70;;;27.67;30.34;101731.00;5156609;27;20094;-53
2021/06/06 05:48:20;;;;;;;1.52;1.42;;;23.90;44.80;;;27.67;30.25;101734.53;5156830;27;20054;-51
2021/06/06 05:50:51;;;;;;;1.42;1.33;;;23.90;44.80;;;27.66;30.35;101731.97;5156623;27;20066;-48
2021/06/06 05:53:35;;;;;;;1.40;1.30;;;23.90;44.80;;;27.67;30.21;101737.22;5138689;27;20088;-52
2021/06/06 05:56:04;;;;;;;1.60;1.50;;;23.90;44.80;;;27.67;30.18;101739.06;5138351;27;20042;-52
2021/06/06 05:58:31;;;;;;;1.40;1.30;;;23.90;44.80;;;27.70;30.17;101741.53;5156387;27;20043;-52
2021/06/06 06:00:58;;;;;;;1.23;1.23;;;23.90;44.80;;;27.69;30.11;101742.47;5156826;27;20133;-49
2021/06/06 06:03:25;;;;;;;1.90;1.80;;;23.90;44.80;;;27.66;30.23;101740.03;5156753;27;20171;-54
2021/06/06 06:05:54;;;;;;;1.60;1.50;;;23.90;44.80;;;27.67;30.14;101750.66;5156721;27;20042;-54
2021/06/06 06:08:33;;;;;;;1.40;1.30;;;23.90;44.80;;;27.65;30.04;101749.94;5156551;27;20038;-54
2021/06/06 06:11:06;;;;;;;1.55;1.45;;;23.90;44.80;;;27.67;30.02;101745.28;5137594;27;20138;-51
2021/06/06 06:13:33;;;;;;;1.20;1.20;;;23.90;44.80;;;27.67;30.01;101755.19;5156330;27;20630;-50
2021/06/06 06:16:02;;;;;;;1.50;1.40;;;23.90;44.80;;;27.67;30.15;101758.72;5156237;27;20058;-53
2021/06/06 06:18:31;;;;;;;1.42;1.33;;;23.90;44.80;;;27.66;30.32;101754.31;5137506;27;20491;-54
2021/06/06 06:20:58;;;;;;;1.48;1.38;;;23.90;44.80;;;27.67;30.13;101761.41;5155894;27;20042;-49
2021/06/06 06:23:25;;;;;;;1.60;1.50;;;23.90;44.80;;;27.68;30.22;101767.63;5155639;27;20130;-51
2021/06/06 06:25:52;;;;;;;1.63;1.52;;;23.90;44.80;;;27.67;30.18;101765.94;5156091;27;20046;-52
2021/06/06 06:28:18;;;;;;;1.40;1.30;;;23.90;44.80;;;27.67;30.25;101761.41;5155982;27;20042;-52
2021/06/06 06:30:53;;;;;;;1.58;1.48;;;23.90;44.80;;;27.68;30.19;101764.94;5137085;27;20051;-54
2021/06/06 06:33:33;;;;;;;1.60;1.50;;;23.90;44.80;;;27.65;30.16;101760.69;5137445;27;20053;-51
2021/06/06 06:35:59;;;;;;;1.52;1.42;;;23.90;44.80;;;27.65;30.29;101760.69;5156258;27;20035;-50
2021/06/06 06:38:26;;;;;;;1.35;1.30;;;23.90;44.90;;;27.66;30.18;101767.75;5137458;27;20047;-49
2021/06/06 06:40:53;;;;;;;1.42;1.33;;;23.90;44.90;;;27.64;30.12;101768.84;5155775;27;20147;-51
2021/06/06 06:43:19;;;;;;;1.48;1.38;;;23.90;44.90;;;27.66;30.33;101770.44;5156151;27;20125;-49
2021/06/06 06:45:46;;;;;;;1.40;1.30;;;23.90;44.90;;;27.65;30.16;101779.47;5155972;27;20055;-54
2021/06/06 06:48:17;;;;;;;1.50;1.40;;;23.90;44.60;;;27.64;30.33;101784.97;5155764;27;20038;-48
2021/06/06 06:50:44;;;;;;;1.60;1.50;;;23.90;44.90;;;27.64;30.19;101776.91;5156238;27;20157;-50
2021/06/06 06:53:10;;;;;;;1.70;1.60;;;23.90;44.90;;;27.63;30.36;101783.25;5155629;27;20122;-53
2021/06/06 06:55:36;;;;;;;1.42;1.33;;;23.80;44.90;;;27.62;30.18;101785.09;5155410;27;20556;-55
2021/06/06 06:58:05;;;;;;;1.35;1.33;;;23.90;45.00;;;27.63;30.08;101794.88;5155265;27;20039;-47
2021/06/06 07:00:39;;;;;;;1.50;1.40;;;23.80;44.90;;;27.60;30.31;101792.41;5155288;27;20156;-51
2021/06/06 07:03:09;;;;;;;1.70;1.60;;;23.80;45.00;;;27.62;30.24;101793.16;5135192;27;20059;-49
2021/06/06 07:05:36;;;;;;;1.40;1.30;;;23.80;45.00;;;27.59;30.26;101787.16;5137169;27;20080;-52
2021/06/06 07:08:06;;;;;;;1.70;1.60;;;23.80;45.00;;;27.58;30.37;101788.13;5155286;27;20641;-47
2021/06/06 07:10:35;;;;;;;1.33;1.23;;;23.80;45.00;;;27.60;30.41;101786.16;5154887;27;20100;-51
2021/06/06 07:13:02;;;;;;;1.38;1.38;;;23.80;45.00;;;27.58;30.36;101794.34;5154774;27;20046;-53
2021/06/06 07:15:27;;;;;;;1.27;1.25;;;23.80;45.00;;;27.58;30.12;101791.66;5136306;27;20074;-50
2021/06/06 07:17:54;;;;;;;1.60;1.50;;;23.80;45.00;;;27.60;30.13;101802.28;5154885;27;20126;-48
2021/06/06 07:20:27;;;;;;;1.42;1.38;;;23.80;45.00;;;27.58;30.30;101802.41;5154920;27;20200;-53
2021/06/06 07:22:53;;;;;;;1.70;1.60;;;23.80;45.00;;;27.58;30.35;101791.66;5155211;27;20106;-48
2021/06/06 07:25:21;;;;;;;1.52;1.42;;;23.80;45.00;;;27.57;30.45;101795.31;5155323;27;20538;-51
2021/06/06 07:27:47;;;;;;;1.70;1.60;;;23.80;45.00;;;27.58;30.33;101797.03;5135894;27;20047;-49
2021/06/06 07:30:25;;;;;;;1.67;1.58;;;23.80;45.00;;;27.56;30.55;101804.34;5154890;27;20046;-48
2021/06/06 07:32:52;;;;;;;1.67;1.58;;;23.80;45.00;;;27.58;30.53;101805.06;5155173;27;20049;-51
2021/06/06 07:35:25;;;;;;;1.63;1.52;;;23.80;45.10;;;27.57;30.35;101798.00;5155243;27;20063;-54
2021/06/06 07:37:51;;;;;;;1.63;1.52;;;23.80;45.00;;;27.60;30.22;101803.16;5155282;27;20046;-49
2021/06/06 07:40:17;;;;;;;1.60;1.50;;;23.80;45.00;;;27.61;30.57;101802.16;5155156;27;20051;-52
2021/06/06 07:42:43;;;;;;;1.50;1.40;;;23.80;45.00;;;27.61;30.37;101804.00;5154841;27;20101;-51
2021/06/06 07:45:13;;;;;;;1.70;1.60;;;23.80;45.00;;;27.61;30.19;101810.22;5155244;27;20444;-49
2021/06/06 07:47:42;;;;;;;1.67;1.58;;;23.80;45.00;;;27.61;30.44;101804.84;5154798;27;20143;-51
2021/06/06 07:50:19;;;;;;;1.60;1.50;;;23.80;45.00;;;27.62;30.26;101805.72;5154726;27;20047;-50
2021/06/06 07:52:44;;;;;;;1.60;1.50;;;23.80;45.00;;;27.63;30.43;101807.44;5154775;27;20441;-52
2021/06/06 07:55:14;;;;;;;1.80;1.70;;;23.80;45.00;;;27.60;30.33;101802.28;5134020;27;20043;-50
2021/06/06 07:57:41;;;;;;;1.70;1.60;;;23.80;45.00;;;27.62;30.34;101801.19;5155271;27;20077;-49
2021/06/06 08:00:16;;;;;;;1.50;1.40;;;23.80;45.00;;;27.62;30.35;101803.03;5154394;27;20396;-49
2021/06/06 08:02:42;;;;;;;1.60;1.50;;;23.80;45.00;;;27.63;30.47;101802.06;5154305;27;20583;-50
2021/06/06 08:05:10;;;;;;;1.70;1.60;;;23.90;45.00;;;27.62;30.34;101803.03;5154501;27;20035;-51
2021/06/06 08:07:36;;;;;;;1.20;1.20;;;23.90;45.00;;;27.65;30.44;101817.09;5135812;27;20130;-54
2021/06/06 08:10:05;;;;;;;1.65;1.55;;;23.90;45.00;;;27.61;30.40;101806.69;5154796;27;20057;-51
2021/06/06 08:12:31;;;;;;;1.73;1.63;;;23.80;44.90;;;27.66;30.37;101815.25;5154329;27;20066;-50
2021/06/06 08:14:57;;;;;;;1.60;1.50;;;23.90;45.00;;;27.65;30.43;101806.34;5154337;27;20063;-52
2021/06/06 08:17:23;;;;;;;1.48;1.38;;;23.90;44.90;;;27.63;30.47;101805.63;5154508;27;20053;-49
2021/06/06 08:19:50;;;;;;;1.55;1.45;;;23.90;44.90;;;27.64;30.16;101809.16;5154309;27;20436;-48
2021/06/06 08:22:16;;;;;;;1.63;1.52;;;23.90;44.90;;;27.66;30.30;101812.56;5154267;27;20051;-53
2021/06/06 08:24:42;;;;;;;1.60;1.50;;;23.90;44.90;;;27.67;30.27;101814.28;5154225;27;20047;-52
2021/06/06 08:27:08;;;;;;;1.60;1.50;;;23.90;44.90;;;27.65;30.26;101809.03;5135747;27;20131;-53
2021/06/06 08:29:34;;;;;;;1.80;1.70;;;23.90;44.90;;;27.68;30.18;101813.31;5154508;27;20125;-50
2021/06/06 08:32:00;;;;;;;1.70;1.60;;;23.90;44.90;;;27.68;30.33;101808.81;5135585;27;20050;-52
2021/06/06 08:34:27;;;;;;;1.40;1.30;;;23.90;44.90;;;27.67;30.32;101811.59;5135695;27;20125;-51
2021/06/06 08:36:56;;;;;;;1.30;1.30;;;23.90;44.90;;;27.68;30.20;101808.81;5118441;27;20039;-48
2021/06/06 08:39:26;;;;;;;1.60;1.50;;;23.90;45.40;;;27.71;30.31;101818.44;5154311;27;20129;-51
2021/06/06 08:42:24;;;;;;;1.50;1.40;;;23.90;44.80;;;27.67;30.20;101806.22;5135721;27;20050;-49
2021/06/06 08:45:21;;;;;;;1.70;1.60;;;23.90;44.80;;;27.71;30.29;101813.91;5136252;27;20121;-51
2021/06/06 08:47:49;;;;;;;1.50;1.40;;;23.90;44.80;;;27.72;30.25;101812.97;5157855;27;20479;-54
2021/06/06 08:50:22;;;;;;;1.50;1.40;;;24.00;44.80;;;27.72;30.20;101812.13;5139309;27;20547;-50
2021/06/06 08:53:11;;;;;;;1.48;1.38;;;24.00;44.80;;;27.76;30.21;101810.88;5157848;27;20053;-51
2021/06/06 08:56:04;;;;;;;1.60;1.50;;;24.00;44.70;;;27.80;30.13;101814.19;5137111;27;20142;-52
2021/06/06 08:59:01;;;;;;;1.50;1.40;;;24.00;44.60;;;27.82;30.14;101813.13;5157879;27;20043;-52
2021/06/06 09:01:43;;;;;;;1.58;1.48;;;24.10;44.60;;;27.83;29.98;101814.84;5139252;27;20133;-48
2021/06/06 09:04:21;;;;;;;1.60;1.50;;;24.10;44.50;;;27.87;30.07;101813.63;5121742;27;20047;-49
2021/06/06 09:07:01;;;;;;;1.58;1.48;;;24.10;44.40;;;27.94;30.00;101815.88;5157393;27;20042;-51
2021/06/06 09:09:38;;;;;;;1.55;1.45;;;24.10;44.40;;;27.98;29.66;101818.19;5157875;27;20387;-50
2021/06/06 09:12:11;;;;;;;1.50;1.40;;;24.20;44.40;;;27.99;29.82;101817.22;5157636;27;20051;-52
2021/06/06 09:14:38;;;;;;;1.30;1.30;;;24.20;44.30;;;28.00;29.98;101824.31;5157363;27;20045;-52
2021/06/06 09:17:16;;;;;;;1.48;1.38;;;24.20;44.20;;;28.04;29.64;101822.25;5138749;27;20095;-53
2021/06/06 09:19:52;;;;;;;1.67;1.58;;;24.20;44.20;;;28.04;29.80;101817.72;5157519;27;20378;-52
2021/06/06 09:22:41;;;;;;;1.63;1.52;;;24.30;44.20;;;28.07;29.97;101820.19;5157229;27;20082;-51
2021/06/06 09:25:28;;;;;;;1.58;1.48;;;24.30;44.10;;;28.12;29.89;101827.91;5157362;27;20050;-51
2021/06/06 09:28:14;;;;;;;1.40;1.30;;;24.30;44.00;;;28.16;29.72;101820.44;5136140;27;20096;-50
2021/06/06 09:30:42;;;;;;;1.67;1.58;;;24.40;44.00;;;28.21;29.71;101823.63;5156708;27;20057;-51
2021/06/06 09:33:27;;;;;;;1.30;1.27;;;24.40;43.90;;;28.20;29.72;101833.53;5138142;27;20061;-53
2021/06/06 09:35:58;;;;;;;1.17;1.17;;;24.40;43.90;;;28.25;29.45;101830.47;5138065;27;20505;-49
2021/06/06 09:38:29;;;;;;;1.38;1.30;;;24.40;43.80;;;28.24;29.61;101834.16;5137917;27;20399;-49
2021/06/06 09:41:39;;;;;;;1.38;1.30;;;24.40;43.80;;;28.28;29.67;101833.78;5157190;27;20484;-49
2021/06/06 09:44:20;;;;;;;1.80;1.70;;;24.50;43.80;;;28.33;29.36;101837.94;5121436;27;20140;-51
2021/06/06 09:46:55;;;;;;;1.48;1.38;;;24.50;43.70;;;28.34;29.44;101835.13;5157230;27;20046;-50
2021/06/06 09:49:46;;;;;;;1.65;1.55;;;24.50;43.70;;;28.36;29.47;101838.56;5138303;27;20102;-52
2021/06/06 09:52:40;;;;;;;1.48;1.38;;;24.50;43.70;;;28.37;29.42;101834.91;5138370;27;20042;-50
2021/06/06 09:55:24;;;;;;;1.60;1.50;;;24.50;43.70;;;28.38;29.23;101839.28;5138304;27;20047;-51
2021/06/06 09:57:53;;;;;;;1.40;1.30;;;24.50;43.60;;;28.41;29.08;101838.19;5155200;27;20051;-53
2021/06/06 10:00:19;;;;;;;1.63;1.52;;;24.50;43.60;;;28.43;29.25;101841.63;5136051;27;20052;-48
2021/06/06 10:03:04;;;;;;;1.17;1.17;;;24.50;43.60;;;28.41;29.48;101838.19;5156496;27;20050;-55
2021/06/06 10:05:37;;;;;;;1.40;1.30;;;24.50;43.60;;;28.45;29.08;101843.22;5137249;27;20086;-51
2021/06/06 10:08:07;;;;;;;1.30;1.30;;;24.60;43.60;;;28.49;29.03;101841.16;5156664;27;20144;-51
2021/06/06 10:10:42;;;;;;;1.48;1.38;;;24.60;43.50;;;28.46;29.30;101836.84;5120460;27;20043;-55
2021/06/06 10:13:13;;;;;;;1.40;1.40;;;24.60;43.50;;;28.48;28.97;101836.72;5156208;27;20050;-52
2021/06/06 10:16:02;;;;;;;1.60;1.50;;;24.60;43.50;;;28.48;29.10;101838.56;5156198;27;20078;-55
2021/06/06 10:18:36;;;;;;;1.67;1.58;;;24.60;43.40;;;28.49;29.25;101849.22;5137901;27;20050;-50
2021/06/06 10:21:26;;;;;;;1.30;1.30;;;24.60;43.50;;;28.45;29.09;101842.34;5156119;27;20134;-51
2021/06/06 10:24:16;;;;;;;1.50;1.40;;;24.60;43.40;;;28.49;29.29;101857.28;5120261;27;20046;-52
2021/06/06 10:26:52;;;;;;;1.58;1.48;;;24.50;43.40;;;28.44;29.01;101849.56;5137428;27;20053;-55
2021/06/06 10:29:53;;;;;;;1.58;1.48;;;24.60;43.50;;;28.45;29.19;101845.91;5156173;27;20115;-54
2021/06/06 10:32:34;;;;;;;1.40;1.30;;;24.50;43.40;;;28.46;29.16;101853.00;5137697;27;20043;-52
2021/06/06 10:35:21;;;;;;;1.20;1.20;;;24.50;43.50;;;28.45;28.86;101853.09;5120289;27;20437;-54
2021/06/06 10:37:52;;;;;;;1.60;1.50;;;24.60;43.50;;;28.48;28.90;101855.56;5135795;27;20491;-53
2021/06/06 10:40:46;;;;;;;;;;;24.60;43.50;;;28.64;28.77;101853.41;5156803;27;20055;-52